sensor_id;sensor_type;location;lat;lon;timestamp;temperature;humidity
27200;DHT22;14714;48.106;11.546;2023-02-22T00:00:11;3.20;99.90
27200;DHT22;14714;48.106;11.546;2023-02-22T00:02:45;3.20;99.90
27200;DHT22;14714;48.106;11.546;2023-02-22T00:05:14;3.20;99.90
27200;DHT22;14714;48.106;11.546;2023-02-22T00:07:42;3.10;99.90
27200;DHT22;14714;48.106;11.546;2023-02-22T00:10:10;3.10;99.90
27200;DHT22;14714;48.106;11.546;2023-02-22T00:12:40;3.00;99.90
27200;DHT22;14714;48.106;11.546;2023-02-22T00:15:07;3.00;99.90
27200;DHT22;14714;48.106;11.546;2023-02-22T00:17:35;3.00;99.90
27200;DHT22;14714;48.106;11.546;2023-02-22T00:20:02;2.90;99.90
27200;DHT22;14714;48.106;11.546;2023-02-22T00:22:31;2.90;99.90
27200;DHT22;14714;48.106;11.546;2023-02-22T00:24:58;2.90;99.90
27200;DHT22;14714;48.106;11.546;2023-02-22T00:27:25;2.90;99.90
27200;DHT22;14714;48.106;11.546;2023-02-22T00:29:52;2.90;99.90
27200;DHT22;14714;48.106;11.546;2023-02-22T00:32:21;2.90;99.90
27200;DHT22;14714;48.106;11.546;2023-02-22T00:34:52;2.90;99.90
27200;DHT22;14714;48.106;11.546;2023-02-22T00:37:19;2.80;99.90
27200;DHT22;14714;48.106;11.546;2023-02-22T00:39:47;2.80;99.90
27200;DHT22;14714;48.106;11.546;2023-02-22T00:42:14;2.80;99.90
27200;DHT22;14714;48.106;11.546;2023-02-22T00:44:41;2.80;99.90
27200;DHT22;14714;48.106;11.546;2023-02-22T00:47:08;2.80;99.90
27200;DHT22;14714;48.106;11.546;2023-02-22T00:49:35;2.80;99.90
27200;DHT22;14714;48.106;11.546;2023-02-22T00:52:02;2.80;99.90
27200;DHT22;14714;48.106;11.546;2023-02-22T00:54:30;2.70;99.90
27200;DHT22;14714;48.106;11.546;2023-02-22T00:56:56;2.70;99.90
27200;DHT22;14714;48.106;11.546;2023-02-22T00:59:23;2.70;99.90
27200;DHT22;14714;48.106;11.546;2023-02-22T01:01:50;2.70;99.90
27200;DHT22;14714;48.106;11.546;2023-02-22T01:04:16;2.60;99.90
27200;DHT22;14714;48.106;11.546;2023-02-22T01:06:44;2.60;99.90
27200;DHT22;14714;48.106;11.546;2023-02-22T01:09:10;2.60;99.90
27200;DHT22;14714;48.106;11.546;2023-02-22T01:11:37;2.50;99.90
27200;DHT22;14714;48.106;11.546;2023-02-22T01:14:04;2.50;99.90
27200;DHT22;14714;48.106;11.546;2023-02-22T01:16:35;2.50;99.90
27200;DHT22;14714;48.106;11.546;2023-02-22T01:19:01;2.40;99.90
27200;DHT22;14714;48.106;11.546;2023-02-22T01:21:28;2.40;99.90
27200;DHT22;14714;48.106;11.546;2023-02-22T01:23:55;2.40;99.90
27200;DHT22;14714;48.106;11.546;2023-02-22T01:26:21;2.40;99.90
27200;DHT22;14714;48.106;11.546;2023-02-22T01:28:48;2.30;99.90
27200;DHT22;14714;48.106;11.546;2023-02-22T01:31:15;2.40;99.90
27200;DHT22;14714;48.106;11.546;2023-02-22T01:33:42;2.30;99.90
27200;DHT22;14714;48.106;11.546;2023-02-22T01:36:10;2.30;99.90
27200;DHT22;14714;48.106;11.546;2023-02-22T01:38:37;2.20;99.90
27200;DHT22;14714;48.106;11.546;2023-02-22T01:41:04;2.20;99.90
27200;DHT22;14714;48.106;11.546;2023-02-22T01:43:31;2.20;99.90
27200;DHT22;14714;48.106;11.546;2023-02-22T01:50:58;2.10;99.90
27200;DHT22;14714;48.106;11.546;2023-02-22T01:53:33;2.20;99.90
27200;DHT22;14714;48.106;11.546;2023-02-22T01:56:02;2.10;99.90
27200;DHT22;14714;48.106;11.546;2023-02-22T01:58:29;2.10;99.90
27200;DHT22;14714;48.106;11.546;2023-02-22T02:00:58;2.10;99.90
27200;DHT22;14714;48.106;11.546;2023-02-22T02:03:25;2.10;99.90
27200;DHT22;14714;48.106;11.546;2023-02-22T02:05:55;2.00;99.90
27200;DHT22;14714;48.106;11.546;2023-02-22T02:11:07;2.00;99.90
27200;DHT22;14714;48.106;11.546;2023-02-22T02:13:35;2.00;99.90
27200;DHT22;14714;48.106;11.546;2023-02-22T02:16:01;2.00;99.90
27200;DHT22;14714;48.106;11.546;2023-02-22T02:18:28;2.00;99.90
27200;DHT22;14714;48.106;11.546;2023-02-22T02:26:20;2.00;99.90
27200;DHT22;14714;48.106;11.546;2023-02-22T02:28:59;2.00;99.90
27200;DHT22;14714;48.106;11.546;2023-02-22T02:36:30;2.00;99.90
27200;DHT22;14714;48.106;11.546;2023-02-22T02:41:46;2.00;99.90
27200;DHT22;14714;48.106;11.546;2023-02-22T02:44:14;2.00;99.90
27200;DHT22;14714;48.106;11.546;2023-02-22T02:46:45;2.00;99.90
27200;DHT22;14714;48.106;11.546;2023-02-22T02:51:55;2.00;99.90
27200;DHT22;14714;48.106;11.546;2023-02-22T02:54:22;1.90;99.90
27200;DHT22;14714;48.106;11.546;2023-02-22T02:56:50;1.90;99.90
27200;DHT22;14714;48.106;11.546;2023-02-22T02:59:24;1.90;99.90
27200;DHT22;14714;48.106;11.546;2023-02-22T03:04:42;1.90;99.90
27200;DHT22;14714;48.106;11.546;2023-02-22T03:12:16;1.90;99.90
27200;DHT22;14714;48.106;11.546;2023-02-22T03:17:16;1.90;99.90
27200;DHT22;14714;48.106;11.546;2023-02-22T03:22:25;1.90;99.90
27200;DHT22;14714;48.106;11.546;2023-02-22T03:27:40;1.90;99.90
27200;DHT22;14714;48.106;11.546;2023-02-22T03:30:10;1.90;99.90
27200;DHT22;14714;48.106;11.546;2023-02-22T03:32:38;1.80;99.90
27200;DHT22;14714;48.106;11.546;2023-02-22T03:35:07;1.80;99.90
27200;DHT22;14714;48.106;11.546;2023-02-22T03:37:39;1.80;99.90
27200;DHT22;14714;48.106;11.546;2023-02-22T03:40:08;1.80;99.90
27200;DHT22;14714;48.106;11.546;2023-02-22T03:42:42;1.80;99.90
27200;DHT22;14714;48.106;11.546;2023-02-22T03:45:12;1.80;99.90
27200;DHT22;14714;48.106;11.546;2023-02-22T03:47:42;1.80;99.90
27200;DHT22;14714;48.106;11.546;2023-02-22T03:50:16;1.80;99.90
27200;DHT22;14714;48.106;11.546;2023-02-22T03:52:43;1.70;99.90
27200;DHT22;14714;48.106;11.546;2023-02-22T03:55:10;1.70;99.90
27200;DHT22;14714;48.106;11.546;2023-02-22T03:57:39;1.70;99.90
27200;DHT22;14714;48.106;11.546;2023-02-22T04:00:07;1.70;99.90
27200;DHT22;14714;48.106;11.546;2023-02-22T04:02:35;1.70;99.90
27200;DHT22;14714;48.106;11.546;2023-02-22T04:05:02;1.70;99.90
27200;DHT22;14714;48.106;11.546;2023-02-22T04:07:28;1.70;99.90
27200;DHT22;14714;48.106;11.546;2023-02-22T04:09:55;1.70;99.90
27200;DHT22;14714;48.106;11.546;2023-02-22T04:12:21;1.70;99.90
27200;DHT22;14714;48.106;11.546;2023-02-22T04:14:48;1.70;99.90
27200;DHT22;14714;48.106;11.546;2023-02-22T04:17:15;1.70;99.90
27200;DHT22;14714;48.106;11.546;2023-02-22T04:19:42;1.70;99.90
27200;DHT22;14714;48.106;11.546;2023-02-22T04:22:11;1.70;99.90
27200;DHT22;14714;48.106;11.546;2023-02-22T04:24:37;1.70;99.90
27200;DHT22;14714;48.106;11.546;2023-02-22T04:27:04;1.70;99.90
27200;DHT22;14714;48.106;11.546;2023-02-22T04:29:30;1.70;99.90
27200;DHT22;14714;48.106;11.546;2023-02-22T04:31:57;1.60;99.90
27200;DHT22;14714;48.106;11.546;2023-02-22T04:34:24;1.60;99.90
27200;DHT22;14714;48.106;11.546;2023-02-22T04:36:50;1.60;99.90
27200;DHT22;14714;48.106;11.546;2023-02-22T04:39:17;1.60;99.90
27200;DHT22;14714;48.106;11.546;2023-02-22T04:41:44;1.50;99.90
27200;DHT22;14714;48.106;11.546;2023-02-22T04:44:13;1.50;99.90
27200;DHT22;14714;48.106;11.546;2023-02-22T04:46:39;1.50;99.90
27200;DHT22;14714;48.106;11.546;2023-02-22T04:49:06;1.60;99.90
27200;DHT22;14714;48.106;11.546;2023-02-22T04:51:33;1.50;99.90
27200;DHT22;14714;48.106;11.546;2023-02-22T04:54:01;1.50;99.90
27200;DHT22;14714;48.106;11.546;2023-02-22T04:56:28;1.50;99.90
27200;DHT22;14714;48.106;11.546;2023-02-22T04:58:55;1.50;99.90
27200;DHT22;14714;48.106;11.546;2023-02-22T05:01:21;1.40;99.90
27200;DHT22;14714;48.106;11.546;2023-02-22T05:03:48;1.40;99.90
27200;DHT22;14714;48.106;11.546;2023-02-22T05:06:16;1.40;99.90
27200;DHT22;14714;48.106;11.546;2023-02-22T05:08:43;1.40;99.90
27200;DHT22;14714;48.106;11.546;2023-02-22T05:11:09;1.50;99.90
27200;DHT22;14714;48.106;11.546;2023-02-22T05:13:36;1.40;99.90
27200;DHT22;14714;48.106;11.546;2023-02-22T05:16:03;1.40;99.90
27200;DHT22;14714;48.106;11.546;2023-02-22T05:18:29;1.40;99.90
27200;DHT22;14714;48.106;11.546;2023-02-22T05:20:56;1.40;99.90
27200;DHT22;14714;48.106;11.546;2023-02-22T05:23:23;1.40;99.90
27200;DHT22;14714;48.106;11.546;2023-02-22T05:25:49;1.40;99.90
27200;DHT22;14714;48.106;11.546;2023-02-22T05:28:16;1.40;99.90
27200;DHT22;14714;48.106;11.546;2023-02-22T05:30:42;1.30;99.90
27200;DHT22;14714;48.106;11.546;2023-02-22T05:33:09;1.30;99.90
27200;DHT22;14714;48.106;11.546;2023-02-22T05:35:36;1.30;99.90
27200;DHT22;14714;48.106;11.546;2023-02-22T05:38:03;1.30;99.90
27200;DHT22;14714;48.106;11.546;2023-02-22T05:40:30;1.30;99.90
27200;DHT22;14714;48.106;11.546;2023-02-22T05:42:57;1.30;99.90
27200;DHT22;14714;48.106;11.546;2023-02-22T05:45:25;1.30;99.90
27200;DHT22;14714;48.106;11.546;2023-02-22T05:47:53;1.30;99.90
27200;DHT22;14714;48.106;11.546;2023-02-22T05:50:20;1.30;99.90
27200;DHT22;14714;48.106;11.546;2023-02-22T05:52:47;1.20;99.90
27200;DHT22;14714;48.106;11.546;2023-02-22T05:55:15;1.20;99.90
27200;DHT22;14714;48.106;11.546;2023-02-22T05:57:41;1.20;99.90
27200;DHT22;14714;48.106;11.546;2023-02-22T06:00:09;1.20;99.90
27200;DHT22;14714;48.106;11.546;2023-02-22T06:02:36;1.20;99.90
27200;DHT22;14714;48.106;11.546;2023-02-22T06:05:03;1.20;99.90
27200;DHT22;14714;48.106;11.546;2023-02-22T06:07:29;1.20;99.90
27200;DHT22;14714;48.106;11.546;2023-02-22T06:09:56;1.20;99.90
27200;DHT22;14714;48.106;11.546;2023-02-22T06:12:23;1.20;99.90
27200;DHT22;14714;48.106;11.546;2023-02-22T06:14:49;1.20;99.90
27200;DHT22;14714;48.106;11.546;2023-02-22T06:17:16;1.30;99.90
27200;DHT22;14714;48.106;11.546;2023-02-22T06:19:45;1.30;99.90
27200;DHT22;14714;48.106;11.546;2023-02-22T06:22:16;1.30;99.90
27200;DHT22;14714;48.106;11.546;2023-02-22T06:24:42;1.30;99.90
27200;DHT22;14714;48.106;11.546;2023-02-22T06:27:09;1.30;99.90
27200;DHT22;14714;48.106;11.546;2023-02-22T06:29:36;1.40;99.90
27200;DHT22;14714;48.106;11.546;2023-02-22T06:32:03;1.40;99.90
27200;DHT22;14714;48.106;11.546;2023-02-22T06:34:30;1.50;99.90
27200;DHT22;14714;48.106;11.546;2023-02-22T06:36:56;1.60;99.90
27200;DHT22;14714;48.106;11.546;2023-02-22T06:39:25;1.60;99.90
27200;DHT22;14714;48.106;11.546;2023-02-22T06:41:52;1.60;99.90
27200;DHT22;14714;48.106;11.546;2023-02-22T06:44:20;1.70;99.90
27200;DHT22;14714;48.106;11.546;2023-02-22T06:46:47;1.80;99.90
27200;DHT22;14714;48.106;11.546;2023-02-22T06:49:17;1.90;99.90
27200;DHT22;14714;48.106;11.546;2023-02-22T06:51:44;1.90;99.90
27200;DHT22;14714;48.106;11.546;2023-02-22T06:54:11;2.00;99.90
27200;DHT22;14714;48.106;11.546;2023-02-22T06:56:37;2.10;99.90
27200;DHT22;14714;48.106;11.546;2023-02-22T06:59:04;2.20;99.90
27200;DHT22;14714;48.106;11.546;2023-02-22T07:01:30;2.30;99.90
27200;DHT22;14714;48.106;11.546;2023-02-22T07:03:57;2.40;99.90
27200;DHT22;14714;48.106;11.546;2023-02-22T07:06:24;2.50;99.90
27200;DHT22;14714;48.106;11.546;2023-02-22T07:08:50;2.60;99.90
27200;DHT22;14714;48.106;11.546;2023-02-22T07:11:17;2.80;99.90
27200;DHT22;14714;48.106;11.546;2023-02-22T07:13:44;2.90;99.90
27200;DHT22;14714;48.106;11.546;2023-02-22T07:16:11;3.00;99.90
27200;DHT22;14714;48.106;11.546;2023-02-22T07:18:37;3.10;99.90
27200;DHT22;14714;48.106;11.546;2023-02-22T07:21:04;3.20;99.90
27200;DHT22;14714;48.106;11.546;2023-02-22T07:23:32;3.40;99.90
27200;DHT22;14714;48.106;11.546;2023-02-22T07:25:59;3.50;99.90
27200;DHT22;14714;48.106;11.546;2023-02-22T07:28:26;3.60;99.90
27200;DHT22;14714;48.106;11.546;2023-02-22T07:30:53;3.80;99.90
27200;DHT22;14714;48.106;11.546;2023-02-22T07:33:19;4.00;99.90
27200;DHT22;14714;48.106;11.546;2023-02-22T07:35:47;4.10;99.90
27200;DHT22;14714;48.106;11.546;2023-02-22T07:38:15;4.30;99.90
27200;DHT22;14714;48.106;11.546;2023-02-22T07:40:42;4.50;99.90
27200;DHT22;14714;48.106;11.546;2023-02-22T07:43:19;4.60;99.90
27200;DHT22;14714;48.106;11.546;2023-02-22T07:45:47;4.80;99.90
27200;DHT22;14714;48.106;11.546;2023-02-22T07:48:15;5.10;99.90
27200;DHT22;14714;48.106;11.546;2023-02-22T07:50:43;5.60;99.90
27200;DHT22;14714;48.106;11.546;2023-02-22T07:53:14;6.00;99.90
27200;DHT22;14714;48.106;11.546;2023-02-22T07:55:41;6.60;99.90
27200;DHT22;14714;48.106;11.546;2023-02-22T07:58:11;7.20;99.90
27200;DHT22;14714;48.106;11.546;2023-02-22T08:00:38;7.90;99.90
27200;DHT22;14714;48.106;11.546;2023-02-22T08:03:09;8.50;99.90
27200;DHT22;14714;48.106;11.546;2023-02-22T08:05:36;8.90;99.90
27200;DHT22;14714;48.106;11.546;2023-02-22T08:08:03;9.40;99.90
27200;DHT22;14714;48.106;11.546;2023-02-22T08:10:31;10.00;99.90
27200;DHT22;14714;48.106;11.546;2023-02-22T08:12:58;10.50;99.90
27200;DHT22;14714;48.106;11.546;2023-02-22T08:17:54;11.60;99.90
27200;DHT22;14714;48.106;11.546;2023-02-22T08:20:21;12.00;99.60
27200;DHT22;14714;48.106;11.546;2023-02-22T08:22:48;12.70;97.70
27200;DHT22;14714;48.106;11.546;2023-02-22T08:25:16;13.10;94.10
27200;DHT22;14714;48.106;11.546;2023-02-22T08:27:43;13.10;92.70
27200;DHT22;14714;48.106;11.546;2023-02-22T08:30:12;12.80;93.90
27200;DHT22;14714;48.106;11.546;2023-02-22T08:32:39;12.70;92.40
27200;DHT22;14714;48.106;11.546;2023-02-22T08:35:06;12.50;92.20
27200;DHT22;14714;48.106;11.546;2023-02-22T08:37:32;12.40;92.20
27200;DHT22;14714;48.106;11.546;2023-02-22T08:39:59;12.40;92.50
27200;DHT22;14714;48.106;11.546;2023-02-22T08:42:26;12.30;90.20
27200;DHT22;14714;48.106;11.546;2023-02-22T08:44:52;12.40;91.90
27200;DHT22;14714;48.106;11.546;2023-02-22T08:47:19;12.60;89.60
27200;DHT22;14714;48.106;11.546;2023-02-22T08:49:45;13.00;88.60
27200;DHT22;14714;48.106;11.546;2023-02-22T08:52:12;13.30;84.70
27200;DHT22;14714;48.106;11.546;2023-02-22T08:54:39;13.60;84.10
27200;DHT22;14714;48.106;11.546;2023-02-22T08:57:06;14.00;83.00
27200;DHT22;14714;48.106;11.546;2023-02-22T08:59:32;14.60;78.90
27200;DHT22;14714;48.106;11.546;2023-02-22T09:01:59;15.20;78.00
27200;DHT22;14714;48.106;11.546;2023-02-22T09:04:26;16.10;72.20
27200;DHT22;14714;48.106;11.546;2023-02-22T09:06:53;17.20;69.00
27200;DHT22;14714;48.106;11.546;2023-02-22T09:09:19;18.50;62.90
27200;DHT22;14714;48.106;11.546;2023-02-22T09:11:47;19.50;58.00
27200;DHT22;14714;48.106;11.546;2023-02-22T09:14:14;20.20;55.10
27200;DHT22;14714;48.106;11.546;2023-02-22T09:16:44;21.00;53.80
27200;DHT22;14714;48.106;11.546;2023-02-22T09:19:11;21.90;49.30
27200;DHT22;14714;48.106;11.546;2023-02-22T09:21:38;22.80;47.00
27200;DHT22;14714;48.106;11.546;2023-02-22T09:24:06;23.70;44.20
27200;DHT22;14714;48.106;11.546;2023-02-22T09:26:37;24.70;40.50
27200;DHT22;14714;48.106;11.546;2023-02-22T09:29:05;25.60;40.00
27200;DHT22;14714;48.106;11.546;2023-02-22T09:31:35;26.40;38.20
27200;DHT22;14714;48.106;11.546;2023-02-22T09:34:03;27.10;35.10
27200;DHT22;14714;48.106;11.546;2023-02-22T09:36:31;27.80;33.70
27200;DHT22;14714;48.106;11.546;2023-02-22T09:38:58;28.50;32.10
27200;DHT22;14714;48.106;11.546;2023-02-22T09:41:26;29.10;31.30
27200;DHT22;14714;48.106;11.546;2023-02-22T09:46:48;29.70;29.30
27200;DHT22;14714;48.106;11.546;2023-02-22T09:49:31;29.70;28.60
27200;DHT22;14714;48.106;11.546;2023-02-22T09:54:39;27.90;28.80
27200;DHT22;14714;48.106;11.546;2023-02-22T09:57:10;26.70;29.40
27200;DHT22;14714;48.106;11.546;2023-02-22T09:59:39;25.80;30.30
27200;DHT22;14714;48.106;11.546;2023-02-22T10:02:21;24.90;31.20
27200;DHT22;14714;48.106;11.546;2023-02-22T10:04:59;23.80;32.10
27200;DHT22;14714;48.106;11.546;2023-02-22T10:07:32;22.80;34.10
27200;DHT22;14714;48.106;11.546;2023-02-22T10:10:02;22.10;35.30
27200;DHT22;14714;48.106;11.546;2023-02-22T10:15:16;20.60;38.20
27200;DHT22;14714;48.106;11.546;2023-02-22T10:25:10;19.60;40.30
27200;DHT22;14714;48.106;11.546;2023-02-22T10:30:15;19.40;40.20
27200;DHT22;14714;48.106;11.546;2023-02-22T10:32:53;19.40;40.00
27200;DHT22;14714;48.106;11.546;2023-02-22T10:35:26;19.20;40.60
27200;DHT22;14714;48.106;11.546;2023-02-22T10:37:57;19.00;41.60
27200;DHT22;14714;48.106;11.546;2023-02-22T10:40:25;18.90;41.90
27200;DHT22;14714;48.106;11.546;2023-02-22T10:43:01;18.70;42.50
27200;DHT22;14714;48.106;11.546;2023-02-22T10:45:29;18.50;42.70
27200;DHT22;14714;48.106;11.546;2023-02-22T10:47:59;18.40;43.30
27200;DHT22;14714;48.106;11.546;2023-02-22T10:50:27;18.40;43.60
27200;DHT22;14714;48.106;11.546;2023-02-22T10:52:54;18.30;44.50
27200;DHT22;14714;48.106;11.546;2023-02-22T10:55:21;18.20;44.00
27200;DHT22;14714;48.106;11.546;2023-02-22T10:57:49;18.20;44.40
27200;DHT22;14714;48.106;11.546;2023-02-22T11:02:55;18.20;44.70
27200;DHT22;14714;48.106;11.546;2023-02-22T11:05:26;18.20;44.10
27200;DHT22;14714;48.106;11.546;2023-02-22T11:10:42;18.20;43.30
27200;DHT22;14714;48.106;11.546;2023-02-22T11:13:23;18.20;43.40
27200;DHT22;14714;48.106;11.546;2023-02-22T11:15:55;18.10;44.00
27200;DHT22;14714;48.106;11.546;2023-02-22T11:18:24;18.10;43.20
27200;DHT22;14714;48.106;11.546;2023-02-22T11:20:58;18.00;44.60
27200;DHT22;14714;48.106;11.546;2023-02-22T11:23:25;18.10;44.80
27200;DHT22;14714;48.106;11.546;2023-02-22T11:25:59;18.10;44.80
27200;DHT22;14714;48.106;11.546;2023-02-22T11:28:27;18.30;44.20
27200;DHT22;14714;48.106;11.546;2023-02-22T11:31:07;18.30;43.90
27200;DHT22;14714;48.106;11.546;2023-02-22T11:33:35;18.40;43.80
27200;DHT22;14714;48.106;11.546;2023-02-22T11:36:03;18.50;44.00
27200;DHT22;14714;48.106;11.546;2023-02-22T11:38:40;18.60;44.30
27200;DHT22;14714;48.106;11.546;2023-02-22T11:41:19;18.50;43.90
27200;DHT22;14714;48.106;11.546;2023-02-22T11:43:49;18.50;43.30
27200;DHT22;14714;48.106;11.546;2023-02-22T11:46:20;18.30;43.10
27200;DHT22;14714;48.106;11.546;2023-02-22T11:54:08;18.00;44.50
27200;DHT22;14714;48.106;11.546;2023-02-22T11:56:48;18.00;45.00
27200;DHT22;14714;48.106;11.546;2023-02-22T11:59:24;18.00;43.50
27200;DHT22;14714;48.106;11.546;2023-02-22T12:08:07;17.70;45.80
27200;DHT22;14714;48.106;11.546;2023-02-22T12:20:16;17.50;44.80
27200;DHT22;14714;48.106;11.546;2023-02-22T12:22:55;17.50;44.70
27200;DHT22;14714;48.106;11.546;2023-02-22T12:28:17;17.60;46.50
27200;DHT22;14714;48.106;11.546;2023-02-22T12:30:52;17.70;45.90
27200;DHT22;14714;48.106;11.546;2023-02-22T12:33:21;17.70;46.90
27200;DHT22;14714;48.106;11.546;2023-02-22T12:35:51;17.80;46.00
27200;DHT22;14714;48.106;11.546;2023-02-22T12:40:50;17.90;46.60
27200;DHT22;14714;48.106;11.546;2023-02-22T12:43:21;17.90;46.50
27200;DHT22;14714;48.106;11.546;2023-02-22T12:45:50;17.80;47.00
27200;DHT22;14714;48.106;11.546;2023-02-22T12:50:48;17.70;47.90
27200;DHT22;14714;48.106;11.546;2023-02-22T12:54:20;17.60;47.40
27200;DHT22;14714;48.106;11.546;2023-02-22T12:56:20;17.60;47.70
27200;DHT22;14714;48.106;11.546;2023-02-22T12:58:50;17.50;47.60
27200;DHT22;14714;48.106;11.546;2023-02-22T13:01:23;17.40;48.00
27200;DHT22;14714;48.106;11.546;2023-02-22T13:03:51;17.30;48.20
27200;DHT22;14714;48.106;11.546;2023-02-22T13:16:52;17.60;47.90
27200;DHT22;14714;48.106;11.546;2023-02-22T13:24:50;17.60;48.10
27200;DHT22;14714;48.106;11.546;2023-02-22T13:27:19;17.50;48.20
27200;DHT22;14714;48.106;11.546;2023-02-22T13:29:48;17.50;48.20
27200;DHT22;14714;48.106;11.546;2023-02-22T13:35:29;17.70;48.70
27200;DHT22;14714;48.106;11.546;2023-02-22T13:38:45;17.70;48.40
27200;DHT22;14714;48.106;11.546;2023-02-22T13:40:54;17.70;48.50
27200;DHT22;14714;48.106;11.546;2023-02-22T13:46:58;17.70;49.20
27200;DHT22;14714;48.106;11.546;2023-02-22T13:56:35;17.40;48.50
27200;DHT22;14714;48.106;11.546;2023-02-22T13:59:05;17.30;49.40
27200;DHT22;14714;48.106;11.546;2023-02-22T14:01:39;17.30;50.60
27200;DHT22;14714;48.106;11.546;2023-02-22T14:07:02;17.30;50.60
27200;DHT22;14714;48.106;11.546;2023-02-22T14:18:04;17.10;52.20
27200;DHT22;14714;48.106;11.546;2023-02-22T14:20:33;17.00;51.80
27200;DHT22;14714;48.106;11.546;2023-02-22T14:25:48;17.00;51.70
27200;DHT22;14714;48.106;11.546;2023-02-22T14:28:37;16.90;51.90
27200;DHT22;14714;48.106;11.546;2023-02-22T14:31:12;16.90;51.70
27200;DHT22;14714;48.106;11.546;2023-02-22T14:36:31;16.80;52.60
27200;DHT22;14714;48.106;11.546;2023-02-22T14:39:13;16.80;52.20
27200;DHT22;14714;48.106;11.546;2023-02-22T14:41:45;16.70;51.90
27200;DHT22;14714;48.106;11.546;2023-02-22T14:44:13;16.50;52.40
27200;DHT22;14714;48.106;11.546;2023-02-22T14:46:41;16.40;53.00
27200;DHT22;14714;48.106;11.546;2023-02-22T14:49:10;16.30;53.10
27200;DHT22;14714;48.106;11.546;2023-02-22T14:51:52;16.20;53.70
27200;DHT22;14714;48.106;11.546;2023-02-22T14:54:23;16.10;53.80
27200;DHT22;14714;48.106;11.546;2023-02-22T14:59:18;16.00;54.10
27200;DHT22;14714;48.106;11.546;2023-02-22T15:01:46;15.90;54.20
27200;DHT22;14714;48.106;11.546;2023-02-22T15:04:33;15.80;54.40
27200;DHT22;14714;48.106;11.546;2023-02-22T15:07:00;15.80;54.60
27200;DHT22;14714;48.106;11.546;2023-02-22T15:09:33;15.70;54.70
27200;DHT22;14714;48.106;11.546;2023-02-22T15:14:30;15.60;54.80
27200;DHT22;14714;48.106;11.546;2023-02-22T15:16:59;15.50;56.70
27200;DHT22;14714;48.106;11.546;2023-02-22T15:19:27;15.50;56.90
27200;DHT22;14714;48.106;11.546;2023-02-22T15:21:55;15.50;55.50
27200;DHT22;14714;48.106;11.546;2023-02-22T15:24:35;15.50;55.80
27200;DHT22;14714;48.106;11.546;2023-02-22T15:27:06;15.40;55.50
27200;DHT22;14714;48.106;11.546;2023-02-22T15:29:42;15.30;55.80
27200;DHT22;14714;48.106;11.546;2023-02-22T15:32:52;15.20;55.70
27200;DHT22;14714;48.106;11.546;2023-02-22T15:35:11;15.10;55.80
27200;DHT22;14714;48.106;11.546;2023-02-22T15:37:38;15.10;55.20
27200;DHT22;14714;48.106;11.546;2023-02-22T15:40:10;15.00;55.70
27200;DHT22;14714;48.106;11.546;2023-02-22T15:42:49;15.00;55.80
27200;DHT22;14714;48.106;11.546;2023-02-22T15:45:19;14.90;55.90
27200;DHT22;14714;48.106;11.546;2023-02-22T15:47:49;14.80;55.90
27200;DHT22;14714;48.106;11.546;2023-02-22T15:50:21;14.80;55.90
27200;DHT22;14714;48.106;11.546;2023-02-22T15:53:37;14.70;56.30
27200;DHT22;14714;48.106;11.546;2023-02-22T15:55:37;14.70;56.30
27200;DHT22;14714;48.106;11.546;2023-02-22T16:00:36;14.50;56.80
27200;DHT22;14714;48.106;11.546;2023-02-22T16:03:04;14.50;57.00
27200;DHT22;14714;48.106;11.546;2023-02-22T16:05:37;14.40;57.00
27200;DHT22;14714;48.106;11.546;2023-02-22T16:08:08;14.30;57.10
27200;DHT22;14714;48.106;11.546;2023-02-22T16:10:38;14.20;57.60
27200;DHT22;14714;48.106;11.546;2023-02-22T16:13:08;14.10;57.90
27200;DHT22;14714;48.106;11.546;2023-02-22T16:15:52;14.00;57.90
27200;DHT22;14714;48.106;11.546;2023-02-22T16:18:23;13.90;58.10
27200;DHT22;14714;48.106;11.546;2023-02-22T16:20:57;13.80;58.40
27200;DHT22;14714;48.106;11.546;2023-02-22T16:23:25;13.70;58.50
27200;DHT22;14714;48.106;11.546;2023-02-22T16:26:05;13.60;58.70
27200;DHT22;14714;48.106;11.546;2023-02-22T16:28:32;13.50;59.60
27200;DHT22;14714;48.106;11.546;2023-02-22T16:31:01;13.30;59.80
27200;DHT22;14714;48.106;11.546;2023-02-22T16:33:28;13.20;59.70
27200;DHT22;14714;48.106;11.546;2023-02-22T16:36:03;13.10;59.70
27200;DHT22;14714;48.106;11.546;2023-02-22T16:38:30;13.10;60.50
27200;DHT22;14714;48.106;11.546;2023-02-22T16:40:59;13.00;60.50
27200;DHT22;14714;48.106;11.546;2023-02-22T16:43:27;12.80;61.20
27200;DHT22;14714;48.106;11.546;2023-02-22T16:45:55;12.80;62.10
27200;DHT22;14714;48.106;11.546;2023-02-22T16:48:22;12.70;62.40
27200;DHT22;14714;48.106;11.546;2023-02-22T16:50:51;12.60;63.00
27200;DHT22;14714;48.106;11.546;2023-02-22T16:53:18;12.50;63.20
27200;DHT22;14714;48.106;11.546;2023-02-22T16:55:46;12.40;63.80
27200;DHT22;14714;48.106;11.546;2023-02-22T16:58:14;12.30;64.10
27200;DHT22;14714;48.106;11.546;2023-02-22T17:00:41;12.20;64.40
27200;DHT22;14714;48.106;11.546;2023-02-22T17:03:09;12.10;64.40
27200;DHT22;14714;48.106;11.546;2023-02-22T17:05:36;12.00;65.30
27200;DHT22;14714;48.106;11.546;2023-02-22T17:08:03;11.90;65.90
27200;DHT22;14714;48.106;11.546;2023-02-22T17:10:30;11.70;66.60
27200;DHT22;14714;48.106;11.546;2023-02-22T17:12:57;11.70;66.90
27200;DHT22;14714;48.106;11.546;2023-02-22T17:15:28;11.50;67.90
27200;DHT22;14714;48.106;11.546;2023-02-22T17:17:55;11.40;68.50
27200;DHT22;14714;48.106;11.546;2023-02-22T17:20:22;11.30;69.10
27200;DHT22;14714;48.106;11.546;2023-02-22T17:22:58;11.10;70.40
27200;DHT22;14714;48.106;11.546;2023-02-22T17:25:30;10.90;71.20
27200;DHT22;14714;48.106;11.546;2023-02-22T17:27:57;10.80;72.00
27200;DHT22;14714;48.106;11.546;2023-02-22T17:30:24;10.70;72.50
27200;DHT22;14714;48.106;11.546;2023-02-22T17:32:51;10.60;73.30
27200;DHT22;14714;48.106;11.546;2023-02-22T17:35:19;10.50;74.10
27200;DHT22;14714;48.106;11.546;2023-02-22T17:37:48;10.40;74.40
27200;DHT22;14714;48.106;11.546;2023-02-22T17:40:15;10.30;74.80
27200;DHT22;14714;48.106;11.546;2023-02-22T17:42:43;10.20;75.00
27200;DHT22;14714;48.106;11.546;2023-02-22T17:45:10;10.10;75.50
27200;DHT22;14714;48.106;11.546;2023-02-22T17:47:40;10.00;75.50
27200;DHT22;14714;48.106;11.546;2023-02-22T17:50:11;10.00;75.80
27200;DHT22;14714;48.106;11.546;2023-02-22T17:52:37;9.90;77.60
27200;DHT22;14714;48.106;11.546;2023-02-22T17:55:04;9.80;77.30
27200;DHT22;14714;48.106;11.546;2023-02-22T17:57:32;9.80;77.10
27200;DHT22;14714;48.106;11.546;2023-02-22T17:59:59;9.70;77.90
27200;DHT22;14714;48.106;11.546;2023-02-22T18:02:26;9.70;78.00